Terminal Aerodrome Forecast
Issued by NWS

Home | Current Version | Previous Version | Text Only | Print | Product List | Glossary On
Versions: 1 2 3 4 5 6 7 8 9 10 11 12 13 14 15 16 17 18 19 20 21 22 23 24 25 26 27 28 29 30 31 32
780
FTUS41 KGYX 231120
TAFLEB
TAF
KLEB 231120Z 2312/2412 VRB03KT P6SM OVC030
     FM231700 01009KT P6SM OVC020
      TEMPO 2403/2406 2SM -SN OVC014
     FM240600 01010KT 1 1/2SM -SNPL BR OVC007=

USA.gov is the U.S. government's official web portal to all federal, state and local government web resources and services.